Snow/Ice From: 16-12-2017 16:00 Until: 17-12-2017 16:00 warning for: Snow/Ice Level: Yellow info button

Although rather usual in this region, locally or potentially dangerous phenomena are expected. (such as local winds, summer thunderstorms, rising streams or high waves) Be aware and pay attention to the latest weather updates, especially if you carry out activities exposed to weather or close to a stream or shoreline. 


Meteo18 Weather Cam more information Meteo18 Weather Cam


Thunder radar more information blitzortung!


warning for Snow/Ice more information rain snow radar


Visit our other weather sites:

Template documentation
and downloads

And another site



Weather Underground History page Text

Daily Summary for March 6, 2017 Units:  English    Metric   Both
« Previous Day
Next Day »
Daily Weekly Monthly Yearly Custom
  High: Low: Average:
Temperature: 48.9 °F 39.7 °F 43.7 °F
Dew Point: 45.9 °F 36.9 °F 40.6 °F
Humidity: 97 % 77 % 89 %
Wind Speed: 32 mph 0 mph 8.6 mph
Wind Gust: 38 mph - -
Wind:- - WSW
Pressure: 30 in 29.5 in -
Precipitation: 0.51 in    
Historical Graphs
 
 
Tabular Data for March 6, 2017
Time Temperature Dew Point Pressure Wind Wind Speed Wind Gust Humidity Rainfall Rate (Hourly)
00:02 45.3 °F 41 °F 29.8 in WSW 9 mph 17 mph 85 % 0 in
00:07 45.3 °F 41 °F 29.8 in WSW 7 mph 17 mph 85 % 0 in
00:12 45.3 °F 41 °F 29.8 in WSW 6 mph 17 mph 85 % 0 in
00:17 45.3 °F 41.4 °F 29.8 in West 13 mph 18 mph 86 % 0 in
00:22 45.3 °F 41.4 °F 29.8 in West 7 mph 19 mph 86 % 0 in
00:32 45.3 °F 41.4 °F 29.8 in WSW 11 mph 17 mph 86 % 0 in
00:37 45.3 °F 41.4 °F 29.8 in West 9 mph 17 mph 86 % 0 in
00:47 45.3 °F 41.7 °F 29.8 in SW 12 mph 14 mph 87 % 0 in
00:57 45.5 °F 41.9 °F 29.8 in SW 9 mph 20 mph 87 % 0 in
01:02 45.7 °F 42.1 °F 29.8 in WSW 8 mph 20 mph 87 % 0 in
01:07 45.7 °F 42.1 °F 29.8 in West 8 mph 15 mph 87 % 0 in
01:12 45.7 °F 42.1 °F 29.8 in WSW 8 mph 16 mph 87 % 0 in
01:17 45.7 °F 42.3 °F 29.8 in West 5 mph 16 mph 88 % 0 in
01:22 45.7 °F 42.1 °F 29.8 in WSW 6 mph 13 mph 87 % 0 in
01:27 45.9 °F 42.3 °F 29.8 in WSW 5 mph 15 mph 87 % 0 in
01:32 45.7 °F 42.1 °F 29.8 in West 8 mph 15 mph 87 % 0 in
01:37 45.9 °F 42.3 °F 29.8 in SW 7 mph 16 mph 87 % 0 in
01:42 45.9 °F 42.3 °F 29.8 in SW 7 mph 16 mph 87 % 0 in
01:47 45.9 °F 42.3 °F 29.8 in WSW 10 mph 16 mph 87 % 0 in
01:52 45.9 °F 42.3 °F 29.8 in SW 6 mph 16 mph 87 % 0 in
01:57 45.9 °F 42.3 °F 29.8 in West 11 mph 16 mph 87 % 0 in
02:02 46 °F 42.1 °F 29.8 in WSW 6 mph 16 mph 86 % 0 in
02:12 46.2 °F 41.9 °F 29.8 in WSW 9 mph 18 mph 85 % 0 in
02:17 46 °F 42.1 °F 29.8 in WSW 6 mph 18 mph 86 % 0 in
02:22 46 °F 42.1 °F 29.8 in SW 8 mph 18 mph 86 % 0 in
02:27 46 °F 42.1 °F 29.8 in WSW 7 mph 13 mph 86 % 0 in
02:32 45.9 °F 41.9 °F 29.8 in WSW 3 mph 13 mph 86 % 0 in
02:37 45.9 °F 42.3 °F 29.8 in West 5 mph 13 mph 87 % 0 in
02:42 45.9 °F 42.3 °F 29.8 in SW 5 mph 11 mph 87 % 0 in
02:52 45.9 °F 42.3 °F 29.8 in WSW 2 mph 11 mph 87 % 0 in
02:57 45.7 °F 42.1 °F 29.8 in SW 5 mph 10 mph 87 % 0 in
03:02 45.7 °F 42.3 °F 29.8 in SW 5 mph 9 mph 88 % 0 in
03:07 45.5 °F 42.1 °F 29.8 in South 4 mph 9 mph 88 % 0 in
03:12 45.3 °F 41.9 °F 29.8 in WSW 3 mph 8 mph 88 % 0 in
03:17 45.3 °F 42.3 °F 29.8 in WSW 4 mph 10 mph 89 % 0 in
03:22 45.3 °F 42.3 °F 29.8 in WSW 5 mph 10 mph 89 % 0 in
03:27 45.3 °F 41.9 °F 29.8 in SW 4 mph 10 mph 88 % 0 in
03:32 45.3 °F 42.3 °F 29.8 in SW 4 mph 10 mph 89 % 0 in
03:37 45.1 °F 42.1 °F 29.8 in SW 7 mph 8 mph 89 % 0 in
03:42 45.3 °F 42.3 °F 29.8 in SW 6 mph 10 mph 89 % 0 in
03:47 45.3 °F 42.3 °F 29.8 in SSW 3 mph 10 mph 89 % 0 in
03:52 45.3 °F 42.3 °F 29.8 in WSW 6 mph 10 mph 89 % 0 in
03:57 45.3 °F 42.3 °F 29.8 in SW 9 mph 10 mph 89 % 0 in
04:02 45.3 °F 42.3 °F 29.8 in WSW 5 mph 11 mph 89 % 0 in
04:07 45.3 °F 42.6 °F 29.8 in WSW 5 mph 11 mph 90 % 0 in
04:12 45.1 °F 42.4 °F 29.8 in SW 4 mph 11 mph 90 % 0 in
04:17 45.3 °F 42.6 °F 29.8 in WSW 8 mph 10 mph 90 % 0 in
04:22 45.3 °F 42.6 °F 29.8 in SW 4 mph 11 mph 90 % 0 in
04:27 45.3 °F 42.6 °F 29.8 in SW 8 mph 12 mph 90 % 0 in
04:32 45.5 °F 42.8 °F 29.8 in SW 5 mph 12 mph 90 % 0 in
04:37 45.7 °F 43 °F 29.8 in WSW 5 mph 12 mph 90 % 0 in
04:47 45.7 °F 43.2 °F 29.8 in West 6 mph 11 mph 91 % 0 in
04:52 45.7 °F 43.2 °F 29.8 in West 1 mph 10 mph 91 % 0 in
04:57 45.7 °F 43.2 °F 29.8 in West 5 mph 10 mph 91 % 0 in
05:02 45.7 °F 43.2 °F 29.8 in West 8 mph 10 mph 91 % 0 in
05:12 45.7 °F 43 °F 29.8 in WSW 10 mph 10 mph 90 % 0 in
05:17 45.7 °F 43 °F 29.8 in West 6 mph 13 mph 90 % 0 in
05:22 45.7 °F 43 °F 29.8 in WSW 6 mph 13 mph 90 % 0 in
05:32 45.7 °F 43 °F 29.8 in WSW 6 mph 10 mph 90 % 0 in
05:42 45.7 °F 43 °F 29.8 in West 5 mph 10 mph 90 % 0 in
05:47 45.9 °F 42.4 °F 29.8 in West 9 mph 15 mph 88 % 0 in
05:52 45.9 °F 41.9 °F 29.8 in West 5 mph 15 mph 86 % 0 in
05:57 46 °F 40.5 °F 29.8 in West 8 mph 15 mph 81 % 0 in
06:02 46 °F 40.5 °F 29.8 in West 10 mph 19 mph 81 % 0 in
06:12 45.9 °F 40.6 °F 29.8 in WSW 3 mph 14 mph 82 % 0 in
06:17 45.7 °F 40.8 °F 29.8 in WSW 1 mph 14 mph 83 % 0 in
06:22 45.7 °F 40.8 °F 29.8 in SW 7 mph 14 mph 83 % 0 in
06:27 45.3 °F 40.8 °F 29.8 in WSW 9 mph 13 mph 84 % 0 in
06:32 45 °F 41 °F 29.8 in West 5 mph 13 mph 86 % 0.01 in
06:37 44.8 °F 41.2 °F 29.8 in WSW 5 mph 13 mph 87 % 0.02 in
06:42 44.4 °F 41.2 °F 29.8 in West 5 mph 11 mph 88 % 0.02 in
06:47 44.2 °F 41 °F 29.8 in West 5 mph 7 mph 88 % 0.02 in
06:57 44.1 °F 41 °F 29.8 in West 3 mph 10 mph 89 % 0.03 in
07:02 43.9 °F 40.8 °F 29.8 in WSW 6 mph 10 mph 89 % 0.03 in
07:12 43.5 °F 40.3 °F 29.8 in West 5 mph 7 mph 88 % 0.04 in
07:17 43.3 °F 40.3 °F 29.8 in West 2 mph 8 mph 89 % 0.05 in
07:22 43.2 °F 40.1 °F 29.8 in Calm   8 mph 89 % 0.05 in
07:27 43.2 °F 40.1 °F 29.7 in Calm   8 mph 89 % 0.04 in
07:32 43 °F 39.9 °F 29.7 in SW 4 mph 5 mph 89 % 0.03 in
07:37 42.8 °F 40.1 °F 29.7 in SW 2 mph 4 mph 90 % 0.03 in
07:42 42.8 °F 40.1 °F 29.7 in SW 1 mph 4 mph 90 % 0.03 in
07:47 42.6 °F 39.9 °F 29.7 in Calm   4 mph 90 % 0.02 in
07:52 42.6 °F 40.1 °F 29.7 in Calm   4 mph 91 % 0.03 in
07:57 42.4 °F 39.9 °F 29.7 in Calm   2 mph 91 % 0.03 in
08:02 42.3 °F 40.1 °F 29.7 in Calm   2 mph 92 % 0.04 in
08:07 42.3 °F 40.1 °F 29.7 in Calm   2 mph 92 % 0.03 in
08:12 42.3 °F 40.1 °F 29.7 in Calm   2 mph 92 % 0.03 in
08:17 42.3 °F 40.5 °F 29.7 in Calm   2 mph 93 % 0.03 in
08:22 42.3 °F 40.5 °F 29.7 in Calm     93 % 0.03 in
08:27 42.3 °F 40.5 °F 29.7 in Calm   1 mph 93 % 0.03 in
08:32 42.3 °F 40.6 °F 29.7 in ESE 1 mph 2 mph 94 % 0.03 in
08:37 42.3 °F 40.6 °F 29.7 in East 1 mph 2 mph 94 % 0.02 in
08:42 42.3 °F 40.6 °F 29.7 in Calm   2 mph 94 % 0.03 in
08:47 42.3 °F 40.6 °F 29.7 in SE 1 mph 2 mph 94 % 0.02 in
08:52 42.3 °F 41 °F 29.7 in SE 1 mph 2 mph 95 % 0.03 in
08:57 42.3 °F 41 °F 29.7 in ESE 1 mph 3 mph 95 % 0.06 in
09:02 42.3 °F 41 °F 29.7 in SSE 3 mph 4 mph 95 % 0.07 in
09:12 42.3 °F 41 °F 29.7 in South 3 mph 5 mph 95 % 0.07 in
09:17 42.3 °F 41 °F 29.7 in SSE 6 mph 6 mph 95 % 0.08 in
09:22 42.3 °F 41 °F 29.7 in SE 1 mph 7 mph 95 % 0.08 in
09:32 42.6 °F 41.5 °F 29.7 in ESE 7 mph 10 mph 96 % 0.1 in
09:37 42.8 °F 41.7 °F 29.7 in SSE 5 mph 11 mph 96 % 0.1 in
09:42 43.2 °F 42.1 °F 29.6 in SSE 6 mph 11 mph 96 % 0.1 in
09:47 43.3 °F 42.3 °F 29.6 in South 4 mph 11 mph 96 % 0.1 in
09:52 43.3 °F 42.3 °F 29.6 in SE 5 mph 10 mph 96 % 0.09 in
10:02 43.5 °F 42.4 °F 29.6 in ESE 10 mph 11 mph 96 % 0.06 in
10:07 43.5 °F 42.4 °F 29.6 in SE 9 mph 12 mph 96 % 0.06 in
10:12 43.7 °F 42.6 °F 29.6 in SSE 14 mph 14 mph 96 % 0.06 in
10:17 43.7 °F 42.6 °F 29.6 in SE 3 mph 14 mph 96 % 0.05 in
10:22 43.7 °F 42.4 °F 29.6 in SSE 7 mph 17 mph 95 % 0.05 in
10:27 43.5 °F 42.4 °F 29.6 in SSE 11 mph 17 mph 96 % 0.04 in
10:32 43.3 °F 42.1 °F 29.6 in SSE 5 mph 17 mph 95 % 0.04 in
10:37 43.3 °F 42.1 °F 29.6 in SE 5 mph 15 mph 95 % 0.04 in
10:42 43.3 °F 42.1 °F 29.5 in ESE 7 mph 15 mph 95 % 0.04 in
10:47 43.3 °F 42.3 °F 29.5 in SSE 6 mph 19 mph 96 % 0.05 in
10:52 43.3 °F 42.3 °F 29.5 in SSE 7 mph 19 mph 96 % 0.05 in
10:57 43.5 °F 42.4 °F 29.5 in South 8 mph 19 mph 96 % 0.05 in
11:02 43.7 °F 42.6 °F 29.5 in SSW 11 mph 19 mph 96 % 0.04 in
11:07 43.9 °F 42.8 °F 29.5 in SE 6 mph 20 mph 96 % 0.04 in
11:12 44.2 °F 43.5 °F 29.5 in South 13 mph 20 mph 97 % 0.05 in
11:17 45.3 °F 44.6 °F 29.5 in SSW 16 mph 20 mph 97 % 0.04 in
11:22 46.6 °F 45.1 °F 29.5 in South 17 mph 20 mph 95 % 0.04 in
11:27 46.9 °F 45 °F 29.5 in SSW 10 mph 24 mph 93 % 0.03 in
11:32 47.1 °F 45.1 °F 29.5 in SSW 12 mph 24 mph 93 % 0.03 in
11:37 47.5 °F 45.5 °F 29.5 in SW 9 mph 23 mph 93 % 0.03 in
11:42 47.8 °F 45.9 °F 29.5 in SW 18 mph 24 mph 93 % 0.02 in
11:52 48.6 °F 43.7 °F 29.5 in West 18 mph 29 mph 83 % 0.02 in
11:57 48.9 °F 42.1 °F 29.5 in WSW 22 mph 36 mph 77 % 0.02 in
12:02 48.9 °F 42.1 °F 29.5 in West 17 mph 36 mph 77 % 0.02 in
12:07 48.4 °F 42.8 °F 29.5 in West 15 mph 36 mph 81 % 0.02 in
12:12 47.8 °F 42.3 °F 29.5 in SSW 11 mph 35 mph 81 % 0.02 in
12:17 47.5 °F 42.3 °F 29.5 in West 23 mph 32 mph 82 % 0.03 in
12:22 47.1 °F 42.6 °F 29.5 in West 20 mph 34 mph 84 % 0.03 in
12:32 46.2 °F 42.6 °F 29.5 in West 15 mph 34 mph 87 % 0.06 in
12:37 45.9 °F 42.4 °F 29.5 in West 14 mph 38 mph 88 % 0.07 in
12:42 45.5 °F 42.4 °F 29.5 in West 13 mph 38 mph 89 % 0.08 in
12:47 45.3 °F 42.6 °F 29.5 in West 13 mph 38 mph 90 % 0.08 in
12:52 45.3 °F 42.6 °F 29.5 in NNW 11 mph 37 mph 90 % 0.09 in
12:57 45.3 °F 42.6 °F 29.5 in SW 11 mph 26 mph 90 % 0.09 in
13:02 45.7 °F 43 °F 29.5 in WSW 16 mph 25 mph 90 % 0.1 in
13:07 45.9 °F 42.8 °F 29.5 in WNW 11 mph 30 mph 89 % 0.11 in
13:12 45.9 °F 42.8 °F 29.5 in West 14 mph 30 mph 89 % 0.11 in
13:17 46.2 °F 42.8 °F 29.5 in WNW 28 mph 30 mph 88 % 0.1 in
13:22 46.2 °F 42.8 °F 29.5 in WSW 28 mph 36 mph 88 % 0.1 in
13:27 46.6 °F 43.2 °F 29.5 in WNW 19 mph 36 mph 88 % 0.1 in
13:32 46.8 °F 43.3 °F 29.5 in WNW 16 mph 36 mph 88 % 0.09 in
13:37 46.9 °F 43.3 °F 29.5 in West 8 mph 35 mph 87 % 0.08 in
13:42 46.9 °F 43.3 °F 29.5 in West 19 mph 31 mph 87 % 0.07 in
13:47 47.1 °F 43.5 °F 29.5 in WNW 25 mph 31 mph 87 % 0.06 in
13:52 47.5 °F 43.5 °F 29.5 in WNW 18 mph 31 mph 86 % 0.05 in
13:57 47.7 °F 43.7 °F 29.5 in West 16 mph 33 mph 86 % 0.04 in
14:02 47.8 °F 43.9 °F 29.5 in WNW 10 mph 33 mph 86 % 0.03 in
14:07 47.8 °F 43.9 °F 29.5 in WNW 16 mph 31 mph 86 % 0.02 in
14:12 47.8 °F 43.5 °F 29.5 in West 25 mph 27 mph 85 % 0.02 in
14:22 48.4 °F 44.1 °F 29.5 in West 19 mph 33 mph 85 % 0.01 in
14:27 48.6 °F 44.6 °F 29.5 in NW 12 mph 33 mph 86 % 0 in
14:32 48.4 °F 44.1 °F 29.5 in West 20 mph 32 mph 85 % 0 in
14:37 47.8 °F 43 °F 29.5 in West 32 mph 33 mph 83 % 0 in
14:42 47.8 °F 43.2 °F 29.6 in WNW 13 mph 34 mph 84 % 0 in
14:47 48 °F 42.8 °F 29.6 in West 16 mph 34 mph 82 % 0 in
14:52 48.2 °F 43.3 °F 29.6 in WNW 15 mph 34 mph 83 % 0.01 in
14:57 48 °F 43.3 °F 29.6 in WNW 24 mph 31 mph 84 % 0.01 in
15:02 47.7 °F 43.7 °F 29.6 in WNW 22 mph 31 mph 86 % 0.01 in
15:07 47.5 °F 43.5 °F 29.6 in WNW 14 mph 30 mph 86 % 0.01 in
15:12 47.5 °F 43.5 °F 29.6 in WNW 7 mph 30 mph 86 % 0.01 in
15:17 46.9 °F 43.3 °F 29.6 in West 16 mph 29 mph 87 % 0.01 in
15:22 46.8 °F 43.3 °F 29.6 in WNW 12 mph 29 mph 88 % 0.02 in
15:27 46.4 °F 43 °F 29.6 in NW 10 mph 29 mph 88 % 0.02 in
15:37 44.4 °F 40.8 °F 29.6 in NNW 15 mph 28 mph 87 % 0.02 in
15:42 43.9 °F 40.8 °F 29.7 in NNW 12 mph 31 mph 89 % 0.02 in
15:47 43.2 °F 40.1 °F 29.7 in NNW 6 mph 31 mph 89 % 0.02 in
15:52 42.6 °F 39.6 °F 29.7 in NW 7 mph 31 mph 89 % 0.02 in
16:02 41.7 °F 38.7 °F 29.7 in NNW 12 mph 27 mph 89 % 0.02 in
16:07 41.4 °F 39 °F 29.7 in NW 11 mph 27 mph 91 % 0.02 in
16:12 41.4 °F 39.2 °F 29.8 in NNW 17 mph 27 mph 92 % 0.02 in
16:17 40.8 °F 38.5 °F 29.8 in WNW 13 mph 29 mph 91 % 0.01 in
16:22 40.8 °F 38.5 °F 29.8 in North 12 mph 29 mph 91 % 0.01 in
16:27 40.6 °F 38.3 °F 29.8 in WNW 21 mph 29 mph 91 % 0.02 in
16:32 40.6 °F 38.3 °F 29.8 in NW 8 mph 31 mph 91 % 0.02 in
16:37 40.5 °F 37.8 °F 29.8 in NW 14 mph 31 mph 90 % 0.02 in
16:42 40.5 °F 38.1 °F 29.8 in NW 8 mph 31 mph 91 % 0.02 in
16:47 40.3 °F 37.9 °F 29.8 in NW 21 mph 26 mph 91 % 0.02 in
16:52 39.9 °F 37.6 °F 29.8 in WNW 9 mph 26 mph 91 % 0.02 in
16:57 39.9 °F 37.6 °F 29.8 in West 13 mph 23 mph 91 % 0.03 in
17:02 39.9 °F 37.2 °F 29.9 in NW 13 mph 23 mph 90 % 0.03 in
17:07 40.1 °F 37.4 °F 29.9 in NW 13 mph 26 mph 90 % 0.03 in
17:17 40.1 °F 37.8 °F 29.9 in NW 12 mph 29 mph 91 % 0.04 in
17:22 40.1 °F 37.8 °F 29.9 in WNW 15 mph 29 mph 91 % 0.05 in
17:27 40.1 °F 37.8 °F 29.9 in NW 10 mph 23 mph 91 % 0.04 in
17:32 40.1 °F 37.8 °F 29.9 in ESE 7 mph 23 mph 91 % 0.05 in
17:37 40.1 °F 37.4 °F 29.9 in NNW 3 mph 23 mph 90 % 0.04 in
17:42 40.1 °F 37.4 °F 29.9 in NW 3 mph 23 mph 90 % 0.04 in
17:47 40.1 °F 37.4 °F 29.9 in NNW 9 mph 21 mph 90 % 0.03 in
17:52 40.1 °F 37.4 °F 29.9 in NNW 6 mph 25 mph 90 % 0.04 in
17:57 40.1 °F 37.4 °F 29.9 in NW 10 mph 25 mph 90 % 0.03 in
18:02 40.1 °F 37.4 °F 29.9 in WNW 12 mph 22 mph 90 % 0.03 in
18:07 40.1 °F 37.4 °F 29.9 in West 8 mph 22 mph 90 % 0.03 in
18:12 40.1 °F 37.8 °F 29.9 in WNW 10 mph 22 mph 91 % 0.04 in
18:17 40.3 °F 37.6 °F 29.9 in WNW 18 mph 21 mph 90 % 0.03 in
18:22 40.3 °F 37.6 °F 29.9 in NW 6 mph 21 mph 90 % 0.02 in
18:32 40.1 °F 37.4 °F 29.9 in WNW 6 mph 23 mph 90 % 0.02 in
18:37 39.9 °F 37.2 °F 29.9 in WNW 14 mph 23 mph 90 % 0.02 in
18:42 39.9 °F 37.2 °F 29.9 in WNW 11 mph 23 mph 90 % 0.02 in
18:47 39.9 °F 37.2 °F 30 in WNW 13 mph 21 mph 90 % 0.02 in
18:52 39.7 °F 37 °F 30 in WNW 4 mph 21 mph 90 % 0.02 in
18:57 39.9 °F 37.2 °F 30 in West 11 mph 23 mph 90 % 0.02 in
19:02 39.9 °F 36.9 °F 30 in SW 10 mph 23 mph 89 % 0.02 in
19:07 40.1 °F 37 °F 30 in West 11 mph 23 mph 89 % 0.01 in
19:12 40.1 °F 37 °F 30 in WSW 10 mph 21 mph 89 % 0.01 in
19:17 40.3 °F 37.2 °F 30 in West 13 mph 21 mph 89 % 0.01 in
19:22 40.3 °F 37.2 °F 30 in WNW 14 mph 19 mph 89 % 0.01 in
19:27 40.5 °F 37.4 °F 30 in West 5 mph 21 mph 89 % 0.01 in
19:32 40.6 °F 37.6 °F 30 in West 11 mph 21 mph 89 % 0.01 in
19:37 40.6 °F 37.9 °F 30 in WNW 11 mph 18 mph 90 % 0 in
19:42 40.6 °F 37.9 °F 30 in West 10 mph 18 mph 90 % 0 in
19:47 40.6 °F 38.3 °F 30 in WNW 9 mph 18 mph 91 % 0 in
19:52 40.6 °F 37.9 °F 30 in WNW 8 mph 14 mph 90 % 0.01 in
19:57 40.6 °F 37.9 °F 30 in WSW 5 mph 16 mph 90 % 0.01 in
20:02 40.6 °F 37.9 °F 30 in WNW 4 mph 16 mph 90 % 0.01 in
20:07 40.6 °F 38.3 °F 30 in WSW 5 mph 16 mph 91 % 0.01 in
20:12 40.6 °F 38.3 °F 30 in WSW 3 mph 13 mph 91 % 0.01 in
20:17 40.6 °F 38.3 °F 30 in WSW 5 mph 12 mph 91 % 0.01 in
20:22 40.8 °F 38.5 °F 30 in West 6 mph 9 mph 91 % 0.01 in
20:27 40.8 °F 38.7 °F 30 in West 7 mph 12 mph 92 % 0.01 in
20:32 40.8 °F 38.7 °F 30 in West 5 mph 12 mph 92 % 0.01 in
20:37 40.8 °F 38.7 °F 30 in SW 5 mph 13 mph 92 % 0.01 in
20:42 40.8 °F 38.7 °F 30 in West 2 mph 13 mph 92 % 0.01 in
20:52 40.6 °F 38.8 °F 30 in SW 2 mph 7 mph 93 % 0 in
20:57 40.6 °F 38.8 °F 30 in West 3 mph 7 mph 93 % 0 in
21:02 40.5 °F 38.7 °F 30 in WNW 5 mph 7 mph 93 % 0 in
21:07 40.5 °F 38.7 °F 30 in West 5 mph 7 mph 93 % 0 in
21:12 40.5 °F 38.7 °F 30 in West 5 mph 9 mph 93 % 0 in
21:17 40.5 °F 38.7 °F 30 in WSW 4 mph 9 mph 93 % 0 in
21:22 40.6 °F 38.8 °F 30 in West 2 mph 8 mph 93 % 0 in
21:27 40.6 °F 38.5 °F 30 in West 3 mph 10 mph 92 % 0 in
21:32 40.6 °F 38.5 °F 30 in West 4 mph 10 mph 92 % 0 in
21:37 40.8 °F 38.7 °F 30 in West 3 mph 10 mph 92 % 0 in
21:42 41 °F 38.7 °F 30 in West 3 mph 10 mph 91 % 0 in
21:47 41.5 °F 38.5 °F 30 in WNW 6 mph 14 mph 89 % 0 in
21:52 41.5 °F 38.3 °F 30 in West 7 mph 14 mph 88 % 0 in
21:57 41.5 °F 38.3 °F 30 in West 9 mph 14 mph 88 % 0 in
22:02 41.4 °F 38.1 °F 30 in West 5 mph 13 mph 88 % 0 in
22:07 41.2 °F 38.1 °F 30 in West 6 mph 13 mph 89 % 0 in
22:12 41 °F 38.3 °F 30 in WNW 6 mph 12 mph 90 % 0 in
22:17 40.8 °F 38.1 °F 30 in SW 5 mph 11 mph 90 % 0 in
22:22 40.8 °F 38.1 °F 30 in WNW 8 mph 12 mph 90 % 0 in
22:27 40.8 °F 37.8 °F 30 in West 8 mph 15 mph 89 % 0 in
22:32 41 °F 37.9 °F 30 in West 8 mph 15 mph 89 % 0 in
22:37 41.2 °F 38.1 °F 30 in West 7 mph 15 mph 89 % 0 in
22:42 41.4 °F 38.3 °F 30 in WNW 9 mph 16 mph 89 % 0 in
22:47 41.5 °F 38.3 °F 30 in West 10 mph 17 mph 88 % 0 in
22:52 41.5 °F 38.3 °F 30 in NW 17 mph 19 mph 88 % 0 in
22:57 41.9 °F 38.3 °F 30 in West 11 mph 19 mph 87 % 0 in
23:02 42.1 °F 38.5 °F 30 in WNW 19 mph 19 mph 87 % 0 in
23:07 42.1 °F 38.5 °F 30 in WNW 11 mph 20 mph 87 % 0 in
23:12 42.1 °F 38.5 °F 30 in WSW 14 mph 20 mph 87 % 0 in
23:17 42.1 °F 38.5 °F 30 in WNW 8 mph 23 mph 87 % 0 in
23:22 42.1 °F 38.5 °F 30 in WSW 8 mph 23 mph 87 % 0 in
23:27 41.7 °F 38.5 °F 30 in WNW 10 mph 23 mph 88 % 0 in
23:32 41.7 °F 38.5 °F 30 in WSW 7 mph 21 mph 88 % 0 in
23:37 41.7 °F 38.5 °F 30 in West 8 mph 18 mph 88 % 0 in
23:42 41.9 °F 38.7 °F 30 in WSW 7 mph 19 mph 88 % 0 in
23:47 41.9 °F 38.8 °F 30 in West 9 mph 19 mph 89 % 0 in
23:52 42.1 °F 39 °F 30 in WNW 7 mph 19 mph 89 % 0 in
Meteo18
Compliments of Weather Underground - 4 mb

Script developed by  Jim McMurry - jmcmurry@mwt.net Adapted for the template by  Wim van der Kuil - Leuven-Template.eu

You find our weather info also at:

European Weather Network

Weather Underground

Equipment we use:

Weather-station
Davis Vue

Weather-program
Meteohub

Weather-server
Raspberry PI 2 B+

Provider
1 and 1

Davis Vue

Meteohub

Raspberry PI 2 B+

1 and 1